createdAt,value
2022-09-05T00:00:03.321Z,9.90
2022-09-05T00:02:35.989Z,7.93
2022-09-05T00:05:25.388Z,8.33
2022-09-05T00:08:03.550Z,7.20
2022-09-05T00:10:50.332Z,7.33
2022-09-05T00:13:33.474Z,8.43
2022-09-05T00:16:22.423Z,7.13
2022-09-05T00:24:19.942Z,6.93
2022-09-05T00:24:27.280Z,6.50
2022-09-05T00:25:30.359Z,7.53
2022-09-05T00:28:25.371Z,6.57
2022-09-05T00:31:53.609Z,7.50
2022-09-05T00:34:18.802Z,7.60
2022-09-05T00:36:49.371Z,7.83
2022-09-05T00:39:20.574Z,7.20
2022-09-05T00:41:51.136Z,7.90
2022-09-05T00:44:21.144Z,7.00
2022-09-05T00:46:58.854Z,7.07
2022-09-05T00:49:34.092Z,7.60
2022-09-05T00:52:05.951Z,7.47
2022-09-05T00:54:51.727Z,7.20
2022-09-05T00:57:50.993Z,7.40
2022-09-05T01:00:21.288Z,8.07
2022-09-05T01:03:20.746Z,7.50
2022-09-05T01:06:25.440Z,6.83
2022-09-05T01:09:07.423Z,5.50
2022-09-05T01:11:46.448Z,5.57
2022-09-05T01:14:37.947Z,6.70
2022-09-05T01:17:19.793Z,6.20
2022-09-05T01:20:20.060Z,7.40
2022-09-05T01:23:24.746Z,7.97
2022-09-05T01:26:05.784Z,8.80
2022-09-05T01:29:16.678Z,7.47
2022-09-05T01:31:41.569Z,8.50
2022-09-05T01:34:24.901Z,8.10
2022-09-05T01:37:07.594Z,8.07
2022-09-05T01:40:16.169Z,8.03
2022-09-05T01:43:06.019Z,7.50
2022-09-05T01:45:50.622Z,7.13
2022-09-05T01:48:31.666Z,7.33
2022-09-05T01:51:28.891Z,6.20
2022-09-05T01:54:18.541Z,6.20
2022-09-05T01:57:07.161Z,5.90
2022-09-05T01:59:45.259Z,6.37
2022-09-05T02:02:38.015Z,6.00
2022-09-05T02:05:48.884Z,5.40
2022-09-05T02:08:37.110Z,7.33
2022-09-05T02:11:07.586Z,5.93
2022-09-05T02:13:53.673Z,7.17
2022-09-05T02:16:27.549Z,9.23
2022-09-05T02:19:06.445Z,8.97
2022-09-05T02:21:55.697Z,8.83
2022-09-05T02:24:29.202Z,7.70
2022-09-05T02:28:05.113Z,8.77
2022-09-05T02:30:09.721Z,8.80
2022-09-05T02:32:47.952Z,8.97
2022-09-05T02:35:26.576Z,8.80
2022-09-05T02:38:23.873Z,9.00
2022-09-05T02:45:19.934Z,8.10
2022-09-05T02:45:21.586Z,7.87
2022-09-05T02:46:46.709Z,8.43
2022-09-05T02:50:02.959Z,10.40
2022-09-05T02:57:29.159Z,10.10
2022-09-05T02:57:34.739Z,10.03
2022-09-05T02:58:07.418Z,9.83
2022-09-05T03:00:41.528Z,9.50
2022-09-05T03:03:20.671Z,10.97
2022-09-05T03:05:57.940Z,9.50
2022-09-05T03:08:46.364Z,10.00
2022-09-05T03:11:45.079Z,8.50
2022-09-05T03:14:59.970Z,9.83
2022-09-05T03:17:53.682Z,9.70
2022-09-05T03:21:09.559Z,9.97
2022-09-05T03:24:12.660Z,9.33
2022-09-05T03:27:18.956Z,11.33
2022-09-05T03:30:08.894Z,10.17
2022-09-05T03:33:07.704Z,9.57
2022-09-05T03:36:31.359Z,9.97
2022-09-05T03:39:42.442Z,10.77
2022-09-05T03:42:33.328Z,10.53
2022-09-05T03:45:29.857Z,8.57
2022-09-05T03:48:31.948Z,9.20
2022-09-05T03:57:07.182Z,9.80
2022-09-05T03:57:12.691Z,8.73
2022-09-05T03:57:51.859Z,9.80
2022-09-05T04:00:25.799Z,12.00
2022-09-05T04:08:07.635Z,10.57
2022-09-05T04:08:40.944Z,9.63
2022-09-05T04:08:53.813Z,9.40
2022-09-05T04:11:33.696Z,9.47
2022-09-05T04:14:06.968Z,8.50
2022-09-05T04:16:46.648Z,9.70
2022-09-05T04:19:22.679Z,10.00
2022-09-05T04:21:58.651Z,9.13
2022-09-05T04:24:31.380Z,10.30
2022-09-05T04:27:17.405Z,7.93
2022-09-05T04:29:58.739Z,6.23
2022-09-05T04:32:39.874Z,6.00
2022-09-05T04:35:31.898Z,6.90
2022-09-05T04:38:11.660Z,7.30
2022-09-05T04:40:43.858Z,7.50
2022-09-05T04:43:21.003Z,7.23
2022-09-05T04:45:54.712Z,7.07
2022-09-05T04:48:29.677Z,7.57
2022-09-05T04:51:08.343Z,7.00
2022-09-05T04:54:09.491Z,7.13
2022-09-05T04:56:43.688Z,7.57
2022-09-05T05:01:44.430Z,8.20
2022-09-05T05:06:00.291Z,7.20
2022-09-05T05:06:11.400Z,8.77
2022-09-05T05:08:06.846Z,8.23
2022-09-05T05:15:20.377Z,8.83
2022-09-05T05:18:08.955Z,10.10
2022-09-05T05:18:13.403Z,9.60
2022-09-05T05:19:24.757Z,10.20
2022-09-05T05:21:56.310Z,10.53
2022-09-05T05:24:29.579Z,10.40
2022-09-05T05:27:05.267Z,11.90
2022-09-05T05:29:44.552Z,10.23
2022-09-05T05:32:24.897Z,9.90
2022-09-05T05:35:15.156Z,9.33
2022-09-05T05:37:47.493Z,10.60
2022-09-05T05:40:26.005Z,10.07
2022-09-05T05:43:15.260Z,9.03
2022-09-05T05:45:44.444Z,9.80
2022-09-05T05:48:30.220Z,10.53
2022-09-05T05:51:13.909Z,9.57
2022-09-05T05:53:52.627Z,8.93
2022-09-05T05:56:40.461Z,10.00
2022-09-05T05:59:41.900Z,9.40
2022-09-05T06:03:24.807Z,9.87
2022-09-05T06:06:09.446Z,8.77
2022-09-05T06:12:06.929Z,8.70
2022-09-05T06:15:00.009Z,9.30
2022-09-05T06:15:27.332Z,7.20
2022-09-05T06:18:45.516Z,6.90
2022-09-05T06:22:10.812Z,5.20
2022-09-05T06:25:16.839Z,5.13
2022-09-05T06:28:18.148Z,5.70
2022-09-05T06:30:57.163Z,4.53
2022-09-05T06:34:00.536Z,4.77
2022-09-05T06:36:49.023Z,3.80
2022-09-05T06:39:25.925Z,3.90
2022-09-05T06:42:36.734Z,3.80
2022-09-05T06:45:28.219Z,3.60
2022-09-05T06:48:11.404Z,4.20
2022-09-05T06:51:09.552Z,3.73
2022-09-05T06:54:10.945Z,3.57
2022-09-05T06:57:08.445Z,3.67
2022-09-05T07:00:19.581Z,3.63
2022-09-05T07:03:15.251Z,3.47
2022-09-05T07:05:55.711Z,3.83
2022-09-05T07:08:35.393Z,3.40
2022-09-05T07:11:16.944Z,3.20
2022-09-05T07:14:01.209Z,4.07
2022-09-05T07:16:41.814Z,3.13
2022-09-05T07:19:27.344Z,2.87
2022-09-05T07:22:18.413Z,2.83
2022-09-05T07:24:58.225Z,2.87
2022-09-05T07:27:46.835Z,3.00
2022-09-05T07:30:24.546Z,2.63
2022-09-05T07:32:55.143Z,3.67
2022-09-05T07:35:29.415Z,3.23
2022-09-05T07:38:07.472Z,2.53
2022-09-05T07:40:39.920Z,2.80
2022-09-05T07:43:18.826Z,2.77
2022-09-05T07:45:56.216Z,3.33
2022-09-05T07:48:34.295Z,2.73
2022-09-05T07:56:17.161Z,2.10
2022-09-05T07:56:52.642Z,2.20
2022-09-05T07:57:22.536Z,2.13
2022-09-05T07:59:41.953Z,2.23
2022-09-05T08:02:12.775Z,2.10
2022-09-05T08:04:42.855Z,2.73
2022-09-05T08:07:47.117Z,2.13
2022-09-05T08:10:10.548Z,2.00
2022-09-05T08:13:22.399Z,1.80
2022-09-05T08:16:02.749Z,1.77
2022-09-05T08:18:33.293Z,1.70
2022-09-05T08:21:11.557Z,1.37
2022-09-05T08:23:52.140Z,1.90
2022-09-05T08:26:30.724Z,1.40
2022-09-05T08:29:06.142Z,1.73
2022-09-05T08:31:42.547Z,1.57
2022-09-05T08:34:16.131Z,1.50
2022-09-05T08:36:47.400Z,1.77
2022-09-05T08:39:21.680Z,1.57
2022-09-05T08:42:10.732Z,1.63
2022-09-05T08:46:40.509Z,1.70
2022-09-05T08:47:45.442Z,2.00
2022-09-05T08:50:34.947Z,1.53
2022-09-05T08:53:45.847Z,2.00
2022-09-05T08:56:18.077Z,1.60
2022-09-05T08:59:31.951Z,1.87
2022-09-05T09:02:45.267Z,1.60
2022-09-05T09:05:14.578Z,2.00
2022-09-05T09:07:52.789Z,1.60
2022-09-05T09:10:35.301Z,2.20
2022-09-05T09:13:37.580Z,1.67
2022-09-05T09:16:10.444Z,2.53
2022-09-05T09:18:58.524Z,1.80
2022-09-05T09:21:35.809Z,1.87
2022-09-05T09:24:14.165Z,1.80
2022-09-05T09:26:50.903Z,1.80
2022-09-05T09:29:19.855Z,1.37
2022-09-05T09:32:02.965Z,2.33
2022-09-05T09:35:21.314Z,1.63
2022-09-05T09:37:59.856Z,1.57
2022-09-05T09:40:53.594Z,1.37
2022-09-05T09:43:35.760Z,1.37
2022-09-05T09:46:17.898Z,1.60
2022-09-05T09:49:23.111Z,1.47
2022-09-05T09:52:36.849Z,2.20
2022-09-05T09:55:43.064Z,1.53
2022-09-05T09:58:38.147Z,1.23
2022-09-05T10:01:35.845Z,1.73
2022-09-05T10:10:38.353Z,1.30
2022-09-05T10:10:50.601Z,1.37
2022-09-05T10:11:22.795Z,1.47
2022-09-05T10:14:08.626Z,1.93
2022-09-05T10:17:14.345Z,1.50
2022-09-05T10:20:10.112Z,1.00
2022-09-05T10:22:59.356Z,1.43
2022-09-05T10:26:00.802Z,1.40
2022-09-05T10:28:40.188Z,1.33
2022-09-05T10:34:18.812Z,1.40
2022-09-05T10:35:13.253Z,1.27
2022-09-05T10:37:13.086Z,1.57
2022-09-05T10:39:45.510Z,1.20
2022-09-05T10:42:16.787Z,1.20
2022-09-05T10:44:51.485Z,1.07
2022-09-05T10:47:34.406Z,1.53
2022-09-05T10:50:12.511Z,1.13
2022-09-05T10:53:15.457Z,1.13
2022-09-05T10:55:56.757Z,2.13
2022-09-05T11:02:22.883Z,1.30
2022-09-05T11:02:31.033Z,1.20
2022-09-05T11:04:46.569Z,1.87
2022-09-05T11:07:27.812Z,1.40
2022-09-05T11:10:14.252Z,1.40
2022-09-05T11:13:01.556Z,1.50
2022-09-05T11:15:35.308Z,1.30
2022-09-05T11:18:10.369Z,1.23
2022-09-05T11:20:54.767Z,1.23
2022-09-05T11:23:32.247Z,1.20
2022-09-05T11:26:07.438Z,0.90
2022-09-05T11:28:55.763Z,1.00
2022-09-05T11:32:05.800Z,1.20
2022-09-05T11:39:54.716Z,1.50
2022-09-05T11:40:07.455Z,1.33
2022-09-05T11:41:29.285Z,2.83
2022-09-05T11:44:27.326Z,1.87
2022-09-05T11:47:27.923Z,1.83
2022-09-05T11:50:25.257Z,1.60
2022-09-05T11:53:29.178Z,1.77
2022-09-05T11:56:42.648Z,1.83
2022-09-05T11:59:36.187Z,0.90
2022-09-05T12:02:27.470Z,1.70
2022-09-05T12:05:48.291Z,1.20
2022-09-05T12:08:12.033Z,1.00
2022-09-05T12:10:53.634Z,1.10
2022-09-05T12:13:35.313Z,1.30
2022-09-05T12:16:20.152Z,1.67
2022-09-05T12:19:19.233Z,1.30
2022-09-05T12:22:18.463Z,1.23
2022-09-05T12:26:02.879Z,1.33
2022-09-05T12:29:28.087Z,1.50
2022-09-05T12:36:07.081Z,1.27
2022-09-05T12:40:54.997Z,1.67
2022-09-05T12:41:36.612Z,1.70
2022-09-05T12:42:10.054Z,1.43
2022-09-05T12:42:55.971Z,1.50
2022-09-05T12:45:45.449Z,1.47
2022-09-05T12:48:19.919Z,1.60
2022-09-05T12:50:58.084Z,1.50
2022-09-05T12:53:27.080Z,1.20
2022-09-05T12:56:41.410Z,1.10
2022-09-05T13:03:05.627Z,1.27
2022-09-05T13:03:14.502Z,1.40
2022-09-05T13:04:48.702Z,1.30
2022-09-05T13:07:38.904Z,1.30
2022-09-05T13:12:45.253Z,1.40
2022-09-05T13:14:54.036Z,1.30
2022-09-05T13:16:00.286Z,1.47
2022-09-05T13:18:37.807Z,1.50
2022-09-05T13:21:11.257Z,1.40
2022-09-05T13:23:45.585Z,1.27
2022-09-05T13:26:23.899Z,1.40
2022-09-05T13:29:11.032Z,1.17
2022-09-05T13:37:56.247Z,1.27
2022-09-05T13:38:11.969Z,1.40
2022-09-05T13:38:12.703Z,1.50
2022-09-05T13:40:41.826Z,1.10
2022-09-05T13:43:12.429Z,1.60
2022-09-05T13:46:03.819Z,1.43
2022-09-05T13:51:37.858Z,1.73
2022-09-05T13:54:36.438Z,2.43
2022-09-05T13:57:31.745Z,1.57
2022-09-05T14:00:38.381Z,1.43
2022-09-05T14:03:43.521Z,1.50
2022-09-05T14:06:47.394Z,1.50
2022-09-05T14:09:36.600Z,1.57
2022-09-05T14:12:15.670Z,1.33
2022-09-05T14:17:56.677Z,1.30
2022-09-05T14:20:49.623Z,1.10
2022-09-05T14:23:22.670Z,0.93
2022-09-05T14:25:55.410Z,1.17
2022-09-05T14:28:29.003Z,1.53
2022-09-05T14:36:09.396Z,1.37
2022-09-05T14:37:43.228Z,1.10
2022-09-05T14:37:51.714Z,1.50
2022-09-05T14:40:35.829Z,1.47
2022-09-05T14:43:24.460Z,1.40
2022-09-05T14:46:13.526Z,1.27
2022-09-05T14:49:10.924Z,1.20
2022-09-05T14:51:46.938Z,1.37
2022-09-05T15:02:38.613Z,1.43
2022-09-05T15:02:47.775Z,1.27
2022-09-05T15:03:05.566Z,1.17
2022-09-05T15:05:41.817Z,1.50
2022-09-05T15:08:42.552Z,1.70
2022-09-05T15:12:23.111Z,1.30
2022-09-05T15:14:01.908Z,1.20
2022-09-05T15:16:31.317Z,1.00
2022-09-05T15:18:59.849Z,1.10
2022-09-05T15:21:34.536Z,1.10
2022-09-05T15:24:13.486Z,1.50
2022-09-05T15:26:52.809Z,1.30
2022-09-05T15:29:26.179Z,1.40
2022-09-05T15:32:11.978Z,1.43
2022-09-05T15:34:40.753Z,1.10
2022-09-05T15:37:28.309Z,1.40
2022-09-05T15:40:07.556Z,1.73
2022-09-05T15:42:51.707Z,1.40
2022-09-05T15:45:25.322Z,1.30
2022-09-05T15:48:08.708Z,1.00
2022-09-05T15:50:42.637Z,1.20
2022-09-05T15:53:14.850Z,1.10
2022-09-05T15:55:58.217Z,1.63
2022-09-05T15:58:53.335Z,1.67
2022-09-05T16:01:48.657Z,1.63
2022-09-05T16:09:16.615Z,1.63
2022-09-05T16:10:35.909Z,1.73
2022-09-05T16:10:36.109Z,1.40
2022-09-05T16:12:50.469Z,1.40
2022-09-05T16:17:36.380Z,1.80
2022-09-05T16:23:23.938Z,1.47
2022-09-05T16:23:24.619Z,1.10
2022-09-05T16:24:05.386Z,1.37
2022-09-05T16:26:41.223Z,1.50
2022-09-05T16:29:22.497Z,1.00
2022-09-05T16:32:15.651Z,1.17
2022-09-05T16:34:52.654Z,1.30
2022-09-05T16:37:26.868Z,1.37
2022-09-05T16:39:59.875Z,1.40
2022-09-05T16:42:46.773Z,3.03
2022-09-05T16:45:26.143Z,1.80
2022-09-05T16:48:03.058Z,1.63
2022-09-05T16:50:38.640Z,1.40
2022-09-05T16:53:30.127Z,2.07
2022-09-05T16:56:03.713Z,2.00
2022-09-05T16:58:34.923Z,1.20
2022-09-05T17:01:20.519Z,2.03
2022-09-05T17:03:56.135Z,1.60
2022-09-05T17:06:37.495Z,1.40
2022-09-05T17:09:19.681Z,1.47
2022-09-05T17:12:01.456Z,1.20
2022-09-05T17:14:36.321Z,1.20
2022-09-05T17:17:36.149Z,1.80
2022-09-05T17:20:05.907Z,2.03
2022-09-05T17:26:14.567Z,1.63
2022-09-05T17:29:23.471Z,1.43
2022-09-05T17:29:34.489Z,1.40
2022-09-05T17:31:55.881Z,2.13
2022-09-05T17:34:58.803Z,1.33
2022-09-05T17:38:13.703Z,1.50
2022-09-05T17:41:16.641Z,1.53
2022-09-05T17:43:51.501Z,1.43
2022-09-05T17:46:24.250Z,1.70
2022-09-05T17:49:17.906Z,2.03
2022-09-05T17:52:19.470Z,2.03
2022-09-05T17:54:52.689Z,2.40
2022-09-05T17:57:39.324Z,2.03
2022-09-05T18:00:45.263Z,2.67
2022-09-05T18:04:15.845Z,2.50
2022-09-05T18:06:59.820Z,2.93
2022-09-05T18:10:14.852Z,3.00
2022-09-05T18:13:14.057Z,2.70
2022-09-05T18:16:12.609Z,3.53
2022-09-05T18:19:32.651Z,2.90
2022-09-05T18:21:49.771Z,3.30
2022-09-05T18:24:33.428Z,2.93
2022-09-05T18:27:44.034Z,2.87
2022-09-05T18:30:11.557Z,2.73
2022-09-05T18:32:42.936Z,3.13
2022-09-05T18:35:37.891Z,2.73
2022-09-05T18:38:51.016Z,2.60
2022-09-05T18:41:22.144Z,3.17
2022-09-05T18:44:13.948Z,4.30
2022-09-05T18:46:50.827Z,2.47
2022-09-05T18:50:22.367Z,5.43
2022-09-05T18:52:23.441Z,2.60
2022-09-05T18:55:30.100Z,3.20
2022-09-05T18:57:51.048Z,2.70
2022-09-05T19:00:41.628Z,2.87
2022-09-05T19:03:24.828Z,2.73
2022-09-05T19:06:02.902Z,3.10
2022-09-05T19:08:49.070Z,2.40
2022-09-05T19:11:27.699Z,2.23
2022-09-05T19:14:25.625Z,2.40
2022-09-05T19:16:50.202Z,3.33
2022-09-05T19:19:24.875Z,2.30
2022-09-05T19:22:13.259Z,2.90
2022-09-05T19:24:46.213Z,3.10
2022-09-05T19:30:55.812Z,3.40
2022-09-05T19:36:53.189Z,2.63
2022-09-05T19:36:58.388Z,2.53
2022-09-05T19:37:13.092Z,3.23
2022-09-05T19:40:28.045Z,2.40
2022-09-05T19:47:25.377Z,2.70
2022-09-05T19:47:44.518Z,2.70
2022-09-05T19:47:57.626Z,2.70
2022-09-05T19:50:20.899Z,2.73
2022-09-05T19:52:53.617Z,3.20
2022-09-05T19:55:24.042Z,3.17
2022-09-05T19:58:19.379Z,2.70
2022-09-05T20:00:50.436Z,3.13
2022-09-05T20:03:38.309Z,3.10
2022-09-05T20:06:28.988Z,2.90
2022-09-05T20:09:14.373Z,2.80
2022-09-05T20:11:47.323Z,2.87
2022-09-05T20:14:21.057Z,2.67
2022-09-05T20:16:50.475Z,3.50
2022-09-05T20:19:32.496Z,3.13
2022-09-05T20:22:10.096Z,3.00
2022-09-05T20:24:54.159Z,3.53
2022-09-05T20:27:27.041Z,2.87
2022-09-05T20:29:59.802Z,2.77
2022-09-05T20:32:39.271Z,4.00
2022-09-05T20:40:43.303Z,3.30
2022-09-05T20:43:18.114Z,3.50
2022-09-05T20:43:31.791Z,2.73
2022-09-05T20:43:55.088Z,3.33
2022-09-05T20:50:08.300Z,3.50
2022-09-05T20:54:07.812Z,3.90
2022-09-05T20:54:16.971Z,2.87
2022-09-05T20:55:38.508Z,4.03
2022-09-05T20:58:13.075Z,2.87
2022-09-05T21:01:19.487Z,3.30
2022-09-05T21:03:38.138Z,3.33
2022-09-05T21:06:20.434Z,3.40
2022-09-05T21:08:49.244Z,4.40
2022-09-05T21:11:18.140Z,4.33
2022-09-05T21:13:53.441Z,3.47
2022-09-05T21:16:29.081Z,3.77
2022-09-05T21:18:57.202Z,3.90
2022-09-05T21:21:28.594Z,3.80
2022-09-05T21:24:16.548Z,3.77
2022-09-05T21:26:50.976Z,4.00
2022-09-05T21:29:33.265Z,3.67
2022-09-05T21:32:10.428Z,3.93
2022-09-05T21:34:45.470Z,4.20
2022-09-05T21:37:16.532Z,5.00
2022-09-05T21:39:58.683Z,4.57
2022-09-05T21:45:54.250Z,4.60
2022-09-05T21:47:46.102Z,4.80
2022-09-05T21:48:10.863Z,4.80
2022-09-05T21:50:44.357Z,4.03
2022-09-05T21:57:00.386Z,4.53
2022-09-05T21:59:27.445Z,4.37
2022-09-05T21:59:27.447Z,4.87
2022-09-05T22:01:56.042Z,4.30
2022-09-05T22:04:24.501Z,4.40
2022-09-05T22:06:54.204Z,4.07
2022-09-05T22:09:24.043Z,5.77
2022-09-05T22:11:52.581Z,5.40
2022-09-05T22:14:22.212Z,5.30
2022-09-05T22:16:51.468Z,5.10
2022-09-05T22:19:29.938Z,5.43
2022-09-05T22:22:16.517Z,5.20
2022-09-05T22:24:49.475Z,5.33
2022-09-05T22:27:19.369Z,5.47
2022-09-05T22:29:48.913Z,6.03
2022-09-05T22:32:32.342Z,5.53
2022-09-05T22:35:26.776Z,5.60
2022-09-05T22:38:08.363Z,5.20
2022-09-05T22:40:40.543Z,4.87
2022-09-05T22:43:10.241Z,5.20
2022-09-05T22:45:40.055Z,5.83
2022-09-05T22:48:09.720Z,4.87
2022-09-05T22:50:40.212Z,5.30
2022-09-05T22:53:09.872Z,5.77
2022-09-05T22:55:41.276Z,4.90
2022-09-05T22:58:10.948Z,5.27
2022-09-05T23:00:39.567Z,5.70
2022-09-05T23:03:08.340Z,4.87
2022-09-05T23:05:36.892Z,5.77
2022-09-05T23:08:07.507Z,5.20
2022-09-05T23:10:37.249Z,5.37
2022-09-05T23:13:06.203Z,5.90
2022-09-05T23:15:35.064Z,5.50
2022-09-05T23:18:03.971Z,6.03
2022-09-05T23:20:33.693Z,5.17
2022-09-05T23:23:05.170Z,5.40
2022-09-05T23:25:35.351Z,5.03
2022-09-05T23:28:06.719Z,5.93
2022-09-05T23:30:35.348Z,5.30
2022-09-05T23:33:05.980Z,5.80
2022-09-05T23:35:34.552Z,5.73
2022-09-05T23:38:02.859Z,6.00
2022-09-05T23:40:31.194Z,6.33
2022-09-05T23:43:01.324Z,5.93
2022-09-05T23:45:30.760Z,5.63
2022-09-05T23:47:59.680Z,5.37
2022-09-05T23:50:29.485Z,6.23
2022-09-05T23:52:57.961Z,6.23
2022-09-05T23:55:26.316Z,5.73
2022-09-05T23:57:58.287Z,6.10
